Time;durP1;ratioP1;P1;durP2;ratioP2;P2;SDS_P1;SDS_P2;PMS_P1;PMS_P2;Temp;Humidity;BMP_temperature;BMP_pressure;BME280_temperature;BME280_humidity;BME280_pressure;Samples;Min_cycle;Max_cycle;Signal;HPM_P1;HPM_P2
2022/08/27 00:02:21;;;;;;;;;28.40;26.60;;;;;30.97;43.69;98702.75;5132673;27;8843;-78
2022/08/27 00:04:50;;;;;;;;;28.80;27.00;;;;;31.02;43.63;98708.53;5132030;27;8960;-78
2022/08/27 00:07:19;;;;;;;;;24.40;24.20;;;;;31.04;43.56;98709.22;5061630;27;8961;-78
2022/08/27 00:09:48;;;;;;;;;30.00;28.80;;;;;31.02;43.61;98707.66;5100506;27;8841;-78
2022/08/27 00:12:16;;;;;;;;;30.20;28.40;;;;;30.97;44.01;98710.00;5137843;27;8834;-79
2022/08/27 00:14:46;;;;;;;;;22.60;20.40;;;;;30.99;43.63;98706.13;5148304;27;8878;-79
2022/08/27 00:17:15;;;;;;;;;28.80;23.40;;;;;30.86;44.20;98705.63;5087504;27;8859;-79
2022/08/27 00:19:44;;;;;;;;;29.20;25.60;;;;;30.92;44.15;98707.75;5151687;27;9651;-79
2022/08/27 00:22:13;;;;;;;;;26.25;26.25;;;;;30.95;43.98;98709.31;5134031;27;8863;-80
2022/08/27 00:24:42;;;;;;;;;28.40;26.40;;;;;30.91;44.29;98703.38;5101483;27;8831;-79
2022/08/27 00:27:17;;;;;;;;;29.75;28.75;;;;;30.92;43.94;98702.34;5154696;27;8876;-78
2022/08/27 00:29:48;;;;;;;;;24.75;23.00;;;;;30.94;44.02;98700.34;5155173;27;8951;-79
2022/08/27 00:32:17;;;;;;;;;30.40;29.80;;;;;30.90;44.31;98701.66;5100521;27;8981;-79
2022/08/27 00:34:46;;;;;;;;;27.25;26.50;;;;;30.96;44.30;98697.50;5139171;27;8861;-79
2022/08/27 00:37:14;;;;;;;;;28.80;27.40;;;;;30.94;43.93;98702.22;5155135;27;8831;-80
2022/08/27 00:39:43;;;;;;;;;29.80;29.20;;;;;30.82;44.36;98698.84;5101261;27;8962;-79
2022/08/27 00:42:12;;;;;;;;;32.40;29.40;;;;;30.71;44.63;98702.59;5119346;27;9584;-82
2022/08/27 00:44:42;;;;;;;;;31.75;30.00;;;;;30.58;45.29;98699.41;5154000;27;8978;-79
2022/08/27 00:47:17;;;;;;;;;30.00;28.25;;;;;30.61;45.04;98699.13;5132695;27;8923;-79
2022/08/27 00:49:51;;;;;;;;;29.50;29.50;;;;;30.64;44.93;98698.81;5080331;27;8857;-79
2022/08/27 00:52:27;;;;;;;;;29.75;29.25;;;;;30.68;44.63;98708.25;5133145;27;8826;-80
2022/08/27 00:55:03;;;;;;;;;29.25;29.00;;;;;30.75;44.62;98701.28;5099275;27;8841;-78
2022/08/27 00:57:32;;;;;;;;;24.60;23.40;;;;;30.60;44.95;98705.47;5132969;27;8861;-82
2022/08/27 01:00:01;;;;;;;;;26.25;25.50;;;;;30.62;44.87;98707.03;5114759;27;8857;-80
2022/08/27 01:02:31;;;;;;;;;29.75;27.25;;;;;30.60;44.97;98703.63;5096746;27;9859;-79
2022/08/27 01:05:04;;;;;;;;;33.25;30.00;;;;;30.71;44.72;98708.81;5151793;27;8836;-77
2022/08/27 01:07:37;;;;;;;;;29.00;28.00;;;;;30.62;45.30;98701.63;5118357;27;8854;-80
2022/08/27 01:10:10;;;;;;;;;29.40;28.60;;;;;30.71;44.64;98705.28;5153056;27;8839;-78
2022/08/27 01:12:39;;;;;;;;;29.50;29.00;;;;;30.71;44.91;98705.28;5154044;27;8851;-79
2022/08/27 01:15:11;;;;;;;;;31.25;29.25;;;;;30.71;45.03;98698.06;5154203;27;9710;-81
2022/08/27 01:17:48;;;;;;;;;32.75;30.50;;;;;30.77;45.02;98701.16;5154784;27;8839;-82
2022/08/27 01:20:21;;;;;;;;;28.75;28.00;;;;;30.74;44.86;98702.31;5136497;27;8933;-82
2022/08/27 01:22:58;;;;;;;;;21.40;21.00;;;;;30.85;44.39;98698.53;5135888;27;8881;-79
2022/08/27 01:25:29;;;;;;;;;29.25;27.00;;;;;30.69;44.81;98701.91;5135089;27;8847;-78
2022/08/27 01:28:02;;;;;;;;;35.75;31.50;;;;;30.66;44.83;98702.19;5152908;27;8839;-78
2022/08/27 01:30:31;;;;;;;;;27.25;25.00;;;;;30.64;45.23;98698.81;5153598;27;8862;-81
2022/08/27 01:33:00;;;;;;;;;30.75;28.75;;;;;30.55;45.00;98705.94;5152901;27;8911;-80
2022/08/27 01:35:28;;;;;;;;;35.50;29.00;;;;;30.68;44.91;98708.25;5153239;27;8961;-82
2022/08/27 01:37:57;;;;;;;;;29.25;29.00;;;;;30.69;44.69;98704.59;5153245;27;8886;-78
2022/08/27 01:40:27;;;;;;;;;31.00;27.75;;;;;30.66;44.85;98712.97;5152509;27;8863;-80
2022/08/27 01:42:57;;;;;;;;;32.00;30.25;;;;;30.67;44.81;98709.28;5152413;27;8827;-79
2022/08/27 01:45:29;;;;;;;;;30.80;29.00;;;;;30.75;44.66;98705.84;5121301;27;8879;-81
2022/08/27 01:47:58;;;;;;;;;28.50;26.75;;;;;30.76;44.54;98711.06;5132947;27;8845;-81
2022/08/27 01:50:31;;;;;;;;;28.20;27.00;;;;;30.80;44.63;98715.16;5114619;27;8876;-81
2022/08/27 01:53:03;;;;;;;;;31.50;29.25;;;;;30.83;44.47;98714.00;5133614;27;9694;-79
2022/08/27 01:55:34;;;;;;;;;27.50;27.00;;;;;30.80;44.52;98706.25;5126856;27;8855;-78
2022/08/27 01:58:03;;;;;;;;;29.50;27.75;;;;;30.71;44.51;98716.88;5157831;27;8867;-79
2022/08/27 02:00:35;;;;;;;;;28.60;26.80;;;;;30.73;44.40;98708.66;5169845;27;8916;-80
2022/08/27 02:03:05;;;;;;;;;28.40;25.20;;;;;30.70;44.83;98709.00;5156692;27;8962;-79
2022/08/27 02:05:34;;;;;;;;;26.80;26.80;;;;;30.65;44.82;98708.59;5134600;27;9672;-79
2022/08/27 02:08:14;;;;;;;;;30.75;28.75;;;;;30.62;44.50;98707.03;5134077;27;8835;-79
2022/08/27 02:10:46;;;;;;;;;28.60;26.20;;;;;30.58;45.05;98705.63;5152454;27;8931;-82
2022/08/27 02:13:15;;;;;;;;;31.80;29.40;;;;;30.44;45.06;98706.13;5099963;27;8861;-81
2022/08/27 02:15:45;;;;;;;;;28.60;27.60;;;;;30.20;45.57;98704.78;5103052;27;8965;-81
2022/08/27 02:18:14;;;;;;;;;31.75;28.75;;;;;30.30;45.52;98707.41;5135097;27;8916;-79
2022/08/27 02:20:44;;;;;;;;;34.50;31.00;;;;;30.30;45.56;98707.41;5115873;27;8863;-80
2022/08/27 02:23:14;;;;;;;;;28.40;27.40;;;;;30.24;45.61;98708.84;5133836;27;8866;-79
2022/08/27 02:25:46;;;;;;;;;34.75;30.25;;;;;30.23;45.61;98717.94;5133978;27;8865;-83
2022/08/27 02:28:15;;;;;;;;;29.25;29.25;;;;;30.23;45.77;98711.72;5152037;27;8831;-82
2022/08/27 02:30:43;;;;;;;;;29.00;27.40;;;;;30.15;45.88;98715.09;5151816;27;8900;-80
2022/08/27 02:33:12;;;;;;;;;28.25;27.25;;;;;29.94;46.43;98720.69;5115009;27;8855;-78
2022/08/27 02:35:43;;;;;;;;;31.60;29.20;;;;;30.05;46.42;98717.00;5142651;27;8896;-80
2022/08/27 02:38:12;;;;;;;;;31.25;28.75;;;;;30.04;46.26;98723.34;5137019;27;8847;-79
2022/08/27 02:40:41;;;;;;;;;30.00;29.50;;;;;30.02;46.29;98720.81;5154660;27;8871;-79
2022/08/27 02:43:11;;;;;;;;;29.00;27.75;;;;;30.07;45.88;98721.22;5133508;27;8846;-80
2022/08/27 02:45:52;;;;;;;;;29.50;27.25;;;;;30.09;45.86;98721.91;5151143;27;8858;-81
2022/08/27 02:48:21;;;;;;;;;31.25;30.00;;;;;30.10;46.03;98715.56;5115128;27;8835;-81
2022/08/27 02:50:50;;;;;;;;;36.50;31.25;;;;;30.08;46.01;98719.41;5116262;27;8865;-81
2022/08/27 02:53:19;;;;;;;;;27.75;26.00;;;;;30.09;46.40;98713.84;5152017;27;8867;-79
2022/08/27 02:55:49;;;;;;;;;26.40;26.20;;;;;30.18;45.80;98719.38;5151931;27;9576;-77
2022/08/27 02:58:18;;;;;;;;;36.00;31.50;;;;;30.14;46.39;98726.88;5133118;27;8955;-81
2022/08/27 03:00:48;;;;;;;;;31.75;29.50;;;;;30.12;46.20;98721.63;5132843;27;8839;-79
2022/08/27 03:03:17;;;;;;;;;31.25;29.75;;;;;30.14;46.42;98726.88;5087127;28;8826;-78
2022/08/27 03:05:46;;;;;;;;;34.50;32.75;;;;;30.09;46.56;98724.59;5070296;28;8877;-81
2022/08/27 03:08:15;;;;;;;;;29.50;28.25;;;;;30.12;46.56;98720.81;5086706;28;8877;-79
2022/08/27 03:10:44;;;;;;;;;30.75;29.75;;;;;30.19;46.34;98729.13;5086878;28;8872;-79
2022/08/27 03:13:13;;;;;;;;;32.00;30.75;;;;;30.20;45.84;98734.34;5086450;28;8857;-79
2022/08/27 03:15:43;;;;;;;;;30.00;28.25;;;;;30.20;46.22;98739.72;5069692;28;8942;-79
2022/08/27 03:18:17;;;;;;;;;29.00;28.80;;;;;30.18;45.83;98733.66;5074065;28;9605;-82
2022/08/27 03:20:49;;;;;;;;;36.00;32.75;;;;;30.22;46.20;98742.28;5049011;28;8856;-80
2022/08/27 03:23:21;;;;;;;;;36.50;31.50;;;;;30.21;46.21;98741.44;5065324;28;8855;-79
2022/08/27 03:25:52;;;;;;;;;34.00;32.00;;;;;30.06;46.76;98729.47;5086091;28;8947;-80
2022/08/27 03:28:22;;;;;;;;;32.25;30.50;;;;;30.07;46.11;98737.34;5086258;28;8880;-79
2022/08/27 03:30:57;;;;;;;;;31.25;29.25;;;;;30.05;46.50;98736.66;5069714;28;8851;-77
2022/08/27 03:33:26;;;;;;;;;34.00;30.75;;;;;29.92;46.38;98742.38;5089048;27;8871;-79
2022/08/27 03:35:55;;;;;;;;;36.50;32.75;;;;;29.78;46.91;98742.78;5127043;27;8847;-79
2022/08/27 03:38:24;;;;;;;;;36.00;32.50;;;;;29.69;47.74;98743.63;5059462;27;9422;-80
2022/08/27 03:40:54;;;;;;;;;28.00;27.75;;;;;29.74;47.10;98744.91;5118008;27;8888;-80
2022/08/27 03:43:23;;;;;;;;;35.25;32.50;;;;;29.78;47.26;98740.09;5089877;28;8867;-79
2022/08/27 03:45:53;;;;;;;;;31.50;30.50;;;;;29.86;47.28;98736.69;5107244;28;8900;-79
2022/08/27 03:48:30;;;;;;;;;35.25;31.25;;;;;29.83;46.97;98737.84;5089668;28;8879;-79
2022/08/27 03:51:03;;;;;;;;;36.75;31.75;;;;;29.91;46.72;98737.13;5089970;28;8817;-78
2022/08/27 03:53:32;;;;;;;;;32.50;29.50;;;;;29.91;46.96;98747.88;5106914;28;8833;-81
2022/08/27 03:56:01;;;;;;;;;31.25;30.50;;;;;29.90;46.96;98746.16;5108966;27;8837;-78
2022/08/27 03:58:29;;;;;;;;;37.25;33.00;;;;;29.89;47.09;98757.94;5116088;27;8978;-81
2022/08/27 04:01:00;;;;;;;;;38.25;33.25;;;;;29.90;47.14;98759.59;5130729;27;9656;-80
2022/08/27 04:03:28;;;;;;;;;35.25;32.00;;;;;29.89;46.79;98753.41;5112478;27;8849;-80
2022/08/27 04:05:58;;;;;;;;;35.75;32.75;;;;;29.84;46.94;98755.66;5112350;27;8833;-81
2022/08/27 04:08:27;;;;;;;;;32.25;31.00;;;;;29.79;47.60;98757.91;5095451;27;8904;-80
2022/08/27 04:10:56;;;;;;;;;35.75;31.75;;;;;29.91;46.85;98758.63;5130929;27;8857;-80
2022/08/27 04:13:24;;;;;;;;;34.75;31.50;;;;;29.91;46.76;98761.31;5126551;27;9739;-80
2022/08/27 04:15:55;;;;;;;;;46.50;38.25;;;;;29.92;47.10;98760.31;5149666;27;8877;-79
2022/08/27 04:18:25;;;;;;;;;35.25;31.25;;;;;29.91;47.07;98759.47;5085791;28;8960;-79
2022/08/27 04:20:53;;;;;;;;;36.50;31.00;;;;;29.88;46.77;98762.44;5085865;28;8830;-80
2022/08/27 04:23:22;;;;;;;;;44.00;37.50;;;;;29.87;47.32;98762.59;5085539;28;8858;-78
2022/08/27 04:25:51;;;;;;;;;37.50;33.00;;;;;29.71;47.54;98768.50;5054007;28;8938;-77
2022/08/27 04:28:20;;;;;;;;;45.50;36.50;;;;;29.62;47.70;98772.03;5085692;28;8923;-79
2022/08/27 04:30:48;;;;;;;;;37.00;31.75;;;;;29.68;47.53;98771.47;5033658;28;8851;-78
2022/08/27 04:33:17;;;;;;;;;37.75;32.50;;;;;29.66;47.94;98776.13;5066558;28;8875;-81
2022/08/27 04:35:47;;;;;;;;;36.50;32.50;;;;;29.64;47.88;98775.44;5049451;28;8986;-78
2022/08/27 04:38:16;;;;;;;;;36.00;32.75;;;;;29.74;47.48;98779.84;5049514;28;8852;-79
2022/08/27 04:43:31;;;;;;;;;39.50;33.75;;;;;29.95;47.43;98769.94;5048202;28;8844;-79
2022/08/27 04:46:00;;;;;;;;;33.25;30.50;;;;;30.03;46.99;98770.91;5081927;28;8829;-78
2022/08/27 04:48:29;;;;;;;;;34.75;32.75;;;;;30.10;47.15;98771.19;5087456;27;8906;-77
2022/08/27 04:50:59;;;;;;;;;33.75;30.50;;;;;30.13;46.89;98768.19;5131276;27;9712;-79
2022/08/27 04:53:27;;;;;;;;;35.75;31.25;;;;;30.12;46.97;98763.81;5131333;27;9601;-79
2022/08/27 04:55:57;;;;;;;;;34.75;31.25;;;;;30.20;46.41;98763.94;5149668;27;8836;-80
2022/08/27 04:58:26;;;;;;;;;38.50;33.25;;;;;30.29;46.64;98759.53;5131429;27;8867;-78
2022/08/27 05:01:00;;;;;;;;;39.25;34.25;;;;;30.31;46.36;98769.16;5129874;27;8865;-80
2022/08/27 05:03:29;;;;;;;;;32.25;31.00;;;;;30.44;46.34;98770.72;5136677;27;8845;-78
2022/08/27 05:06:04;;;;;;;;;36.75;33.00;;;;;30.67;45.78;98763.94;5110009;27;8869;-79
2022/08/27 05:08:34;;;;;;;;;38.50;32.75;;;;;30.59;45.90;98771.09;5111563;27;8961;-80
2022/08/27 05:11:02;;;;;;;;;38.00;33.25;;;;;30.67;45.47;98776.56;5096956;27;9701;-78
2022/08/27 05:13:31;;;;;;;;;39.25;30.75;;;;;30.77;45.79;98779.22;5132672;27;8849;-79
2022/08/27 05:16:03;;;;;;;;;39.25;34.00;;;;;30.92;45.43;98782.28;5079977;27;8876;-78
2022/08/27 05:18:32;;;;;;;;;38.50;33.50;;;;;30.81;45.42;98778.75;5097330;27;8895;-81
2022/08/27 05:21:18;;;;;;;;;37.00;33.00;;;;;31.02;45.19;98778.56;5132072;27;9538;-80
2022/08/27 05:23:46;;;;;;;;;35.50;33.25;;;;;31.04;45.11;98779.25;5131574;27;8831;-81
2022/08/27 05:26:15;;;;;;;;;35.00;32.25;;;;;31.20;44.29;98775.88;5152789;27;8827;-78
2022/08/27 05:28:44;;;;;;;;;35.75;32.75;;;;;31.26;44.26;98772.56;5152546;27;8843;-80
2022/08/27 05:31:15;;;;;;;;;31.75;30.75;;;;;31.43;44.42;98780.84;5115728;27;9620;-80
2022/08/27 05:33:44;;;;;;;;;37.00;32.75;;;;;31.44;44.09;98780.69;5116994;27;8855;-81
2022/08/27 05:36:18;;;;;;;;;40.00;34.25;;;;;31.53;43.80;98778.97;5083318;27;9671;-79
2022/08/27 05:38:49;;;;;;;;;45.75;36.00;;;;;31.60;44.02;98788.09;5113996;27;8845;-81
2022/08/27 05:41:26;;;;;;;;;41.25;34.25;;;;;31.78;43.44;98787.28;5133007;27;8902;-79
2022/08/27 05:44:05;;;;;;;;;35.75;32.75;;;;;31.84;43.41;98786.66;5133692;27;8837;-81
2022/08/27 05:46:53;;;;;;;;;35.50;31.25;;;;;31.92;43.16;98791.25;5133778;27;9664;-80
2022/08/27 05:49:22;;;;;;;;;36.25;32.25;;;;;31.98;42.83;98782.53;5118273;27;8874;-80
2022/08/27 05:51:52;;;;;;;;;34.50;31.75;;;;;32.13;42.83;98789.09;5117868;27;8861;-80
2022/08/27 05:54:20;;;;;;;;;38.50;34.75;;;;;32.24;42.47;98788.81;5137432;27;8851;-81
2022/08/27 05:56:49;;;;;;;;;33.75;30.75;;;;;32.25;42.52;98790.53;5154191;27;8823;-82
2022/08/27 06:02:06;;;;;;;;;32.50;31.00;;;;;32.52;41.84;98796.78;5117373;27;8847;-78
2022/08/27 06:04:35;;;;;;;;;36.50;33.00;;;;;32.54;41.87;98791.22;5147659;27;8860;-79
2022/08/27 06:07:05;;;;;;;;;36.25;32.75;;;;;32.62;41.84;98794.81;5114160;27;8849;-78
2022/08/27 06:09:34;;;;;;;;;35.00;31.25;;;;;32.77;41.25;98788.84;5132033;27;8985;-79
2022/08/27 06:12:02;;;;;;;;;36.25;30.50;;;;;32.59;41.68;98795.16;5113177;27;8971;-80
2022/08/27 06:14:31;;;;;;;;;36.00;32.25;;;;;32.85;41.26;98793.41;5112911;27;8853;-80
2022/08/27 06:17:01;;;;;;;;;29.75;29.25;;;;;32.81;41.33;98796.44;5113185;27;8853;-79
2022/08/27 06:19:29;;;;;;;;;33.25;30.25;;;;;32.79;41.37;98794.91;5112052;27;8966;-80
2022/08/27 06:21:59;;;;;;;;;30.75;29.75;;;;;32.70;41.33;98793.19;5112213;27;8894;-81
2022/08/27 06:24:42;;;;;;;;;33.25;32.25;;;;;33.09;41.11;98792.69;5138820;27;8996;-79
2022/08/27 06:27:13;;;;;;;;;31.75;29.25;;;;;33.00;40.93;98798.03;5126162;27;8849;-76
2022/08/27 06:29:42;;;;;;;;;34.75;32.00;;;;;32.85;41.28;98804.22;5147244;27;8829;-76
2022/08/27 06:32:12;;;;;;;;;35.00;32.75;;;;;32.71;41.71;98808.38;5117617;27;8930;-80
2022/08/27 06:34:41;;;;;;;;;34.50;31.50;;;;;33.03;41.10;98802.28;5139597;27;8833;-78
2022/08/27 06:37:10;;;;;;;;;29.75;29.50;;;;;32.94;41.40;98804.09;5107143;27;8851;-79
2022/08/27 06:39:40;;;;;;;;;30.50;30.25;;;;;32.90;41.70;98802.72;5153412;27;8848;-78
2022/08/27 06:42:12;;;;;;;;;33.25;30.00;;;;;32.92;41.58;98800.72;5150594;27;8843;-80
2022/08/27 06:44:41;;;;;;;;;28.75;28.50;;;;;32.78;41.83;98796.78;5133413;27;8945;-79
2022/08/27 06:47:10;;;;;;;;;32.00;30.75;;;;;32.69;41.77;98800.44;5115671;27;8859;-79
2022/08/27 06:49:40;;;;;;;;;32.50;30.00;;;;;32.77;41.77;98807.72;5133489;27;8859;-80
2022/08/27 06:52:11;;;;;;;;;32.00;31.00;;;;;33.18;40.95;98799.84;5131177;27;8855;-80
2022/08/27 06:54:41;;;;;;;;;28.25;28.25;;;;;33.41;40.76;98805.47;5112246;27;8837;-80
2022/08/27 06:57:09;;;;;;;;;28.75;27.75;;;;;33.33;40.56;98803.59;5111282;27;8877;-80
2022/08/27 06:59:38;;;;;;;;;39.75;33.50;;;;;33.18;40.06;98803.38;5112251;27;8868;-80
2022/08/27 07:02:07;;;;;;;;;32.25;30.00;;;;;33.73;39.33;98804.69;5130232;27;8849;-83
2022/08/27 07:04:36;;;;;;;;;34.25;31.00;;;;;33.95;39.05;98796.91;5130651;27;8845;-78
2022/08/27 07:07:05;;;;;;;;;31.25;28.75;;;;;33.96;38.72;98804.88;5112447;27;8845;-79
2022/08/27 07:09:34;;;;;;;;;28.25;27.50;;;;;34.13;38.42;98803.00;5094686;27;8884;-81
2022/08/27 07:12:05;;;;;;;;;26.50;26.50;;;;;34.41;38.36;98807.25;5111468;27;8830;-80
2022/08/27 07:14:34;;;;;;;;;30.00;28.75;;;;;34.59;38.09;98805.13;5141689;27;9632;-83
2022/08/27 07:17:07;;;;;;;;;32.00;30.50;;;;;34.85;37.74;98809.50;5150204;27;8847;-80
2022/08/27 07:19:39;;;;;;;;;29.75;29.00;;;;;34.68;37.15;98809.56;5131977;27;8919;-81
2022/08/27 07:22:09;;;;;;;;;33.50;31.75;;;;;34.54;37.66;98810.25;5131710;27;8849;-83
2022/08/27 07:24:38;;;;;;;;;29.25;28.50;;;;;34.44;37.67;98815.84;5150282;27;8855;-80
2022/08/27 07:27:08;;;;;;;;;24.00;23.00;;;;;34.65;37.07;98812.59;5132942;27;8912;-79
2022/08/27 07:29:36;;;;;;;;;28.00;27.75;;;;;34.83;37.05;98812.38;5107097;28;8936;-82
2022/08/27 07:32:05;;;;;;;;;27.00;26.50;;;;;34.99;37.09;98808.75;5106886;28;9585;-81
2022/08/27 07:34:34;;;;;;;;;28.50;26.00;;;;;35.25;36.83;98813.91;5089903;28;8898;-80
2022/08/27 07:37:03;;;;;;;;;23.25;21.50;;;;;35.27;36.21;98814.59;5053633;28;8849;-81
2022/08/27 07:39:31;;;;;;;;;31.75;29.75;;;;;35.07;36.54;98824.16;5086341;28;8854;-80
2022/08/27 07:44:48;;;;;;;;;28.00;27.00;;;;;35.60;36.07;98830.69;5085805;28;8884;-81
2022/08/27 07:47:17;;;;;;;;;26.25;24.25;;;;;35.74;36.06;98822.81;5088982;28;8819;-81
2022/08/27 07:49:46;;;;;;;;;26.75;25.75;;;;;35.74;35.92;98828.25;5106450;28;8863;-81
2022/08/27 07:52:16;;;;;;;;;34.50;30.00;;;;;34.92;36.76;98824.06;5042228;28;8972;-80
2022/08/27 07:54:45;;;;;;;;;22.75;22.25;;;;;35.49;36.86;98833.81;5105213;28;8986;-80
2022/08/27 07:57:14;;;;;;;;;32.00;29.00;;;;;35.53;36.15;98830.53;5088887;28;8855;-79
2022/08/27 07:59:42;;;;;;;;;30.00;29.00;;;;;35.38;36.76;98826.91;5108338;27;8980;-82
2022/08/27 08:02:14;;;;;;;;;32.50;28.75;;;;;35.46;36.36;98826.84;5130565;27;8865;-76
2022/08/27 08:04:42;;;;;;;;;30.00;29.00;;;;;35.01;36.70;98825.72;5131922;27;8977;-82
2022/08/27 08:07:11;;;;;;;;;31.00;30.25;;;;;35.02;36.98;98829.25;5149712;27;8878;-81
2022/08/27 08:09:40;;;;;;;;;25.00;25.00;;;;;35.47;36.35;98836.69;5085026;28;8891;-81
2022/08/27 08:12:08;;;;;;;;;31.25;29.25;;;;;35.68;35.54;98827.94;5085817;28;8880;-82
2022/08/27 08:14:37;;;;;;;;;32.00;31.00;;;;;35.61;36.25;98837.78;5085460;28;8895;-81
2022/08/27 08:17:05;;;;;;;;;28.75;28.50;;;;;35.20;36.56;98829.88;5086105;28;9686;-79
2022/08/27 08:19:39;;;;;;;;;34.75;30.25;;;;;34.08;38.37;98837.84;5069446;28;8952;-80
2022/08/27 08:22:09;;;;;;;;;21.25;21.25;;;;;34.92;36.75;98834.88;5054725;28;8842;-79
2022/08/27 08:24:37;;;;;;;;;38.00;32.25;;;;;34.88;36.56;98839.81;5068447;28;8877;-79
2022/08/27 08:27:06;;;;;;;;;28.00;26.50;;;;;35.02;36.31;98843.66;5068366;28;8947;-79
2022/08/27 08:29:36;;;;;;;;;32.75;31.25;;;;;35.23;35.91;98843.06;5084979;28;8857;-80
2022/08/27 08:32:05;;;;;;;;;27.50;26.25;;;;;35.58;35.67;98846.28;5084924;28;8958;-81
2022/08/27 08:34:35;;;;;;;;;36.25;32.75;;;;;35.33;36.33;98848.28;5052074;28;9011;-80
2022/08/27 08:37:06;;;;;;;;;39.00;33.00;;;;;34.61;37.78;98849.16;5065791;28;8820;-81
2022/08/27 08:39:37;;;;;;;;;36.75;31.75;;;;;34.84;37.34;98852.03;5065426;28;8876;-80
2022/08/27 08:42:10;;;;;;;;;26.75;26.00;;;;;34.69;37.41;98842.91;5129152;27;8841;-80
2022/08/27 08:44:44;;;;;;;;;28.50;27.75;;;;;35.29;36.38;98847.78;5113762;27;8858;-81
2022/08/27 08:47:19;;;;;;;;;30.75;28.75;;;;;35.56;35.31;98847.47;5133450;27;8887;-83
2022/08/27 08:49:58;;;;;;;;;29.25;27.75;;;;;35.97;35.28;98839.91;5131259;27;8966;-80
2022/08/27 08:52:42;;;;;;;;;27.25;25.75;;;;;36.13;35.01;98849.81;5096002;27;8845;-81
2022/08/27 08:55:25;;;;;;;;;27.75;27.00;;;;;36.28;34.72;98842.59;5114397;27;8933;-80
2022/08/27 08:58:07;;;;;;;;;30.50;27.75;;;;;36.04;35.24;98842.75;5079157;27;8841;-80
2022/08/27 09:00:38;;;;;;;;;29.00;28.50;;;;;36.23;35.08;98845.00;5078833;27;8857;-83
2022/08/27 09:03:10;;;;;;;;;34.25;31.25;;;;;35.51;35.77;98850.72;5113553;27;8833;-80
2022/08/27 09:05:43;;;;;;;;;32.00;29.50;;;;;34.93;36.43;98855.53;5126622;27;8954;-80
2022/08/27 09:08:17;;;;;;;;;31.25;29.50;;;;;34.59;37.35;98853.06;5100445;27;9000;-81
2022/08/27 09:11:10;;;;;;;;;25.25;25.25;;;;;35.32;37.08;98852.84;5133843;27;8942;-81
2022/08/27 09:13:43;;;;;;;;;28.00;27.33;;;;;35.63;35.14;98849.28;5117328;27;8954;-82
2022/08/27 09:16:11;;;;;;;;;19.00;18.00;;;;;35.05;36.41;98850.56;5145753;27;8826;-80
2022/08/27 09:18:43;;;;;;;;;28.50;28.25;;;;;35.71;35.18;98853.84;5132648;27;9600;-78
2022/08/27 09:21:22;;;;;;;;;32.00;28.50;;;;;35.66;34.71;98848.94;5132864;27;8857;-83
2022/08/27 09:24:04;;;;;;;;;26.75;25.75;;;;;35.37;34.39;98848.75;5116310;27;8895;-81
2022/08/27 09:26:36;;;;;;;;;25.25;23.75;;;;;35.53;34.41;98851.41;5135475;27;8955;-80
2022/08/27 09:29:18;;;;;;;;;24.25;24.25;;;;;35.87;34.48;98845.59;5117617;27;8859;-80
2022/08/27 09:31:54;;;;;;;;;21.00;21.00;;;;;36.18;32.56;98844.69;5117025;27;8851;-82
2022/08/27 09:34:24;;;;;;;;;23.25;23.00;;;;;35.69;33.17;98845.91;5133870;27;8839;-80
2022/08/27 09:37:02;;;;;;;;;24.60;24.20;;;;;36.11;32.99;98836.41;5133269;27;8878;-80
2022/08/27 09:39:46;;;;;;;;;22.50;22.25;;;;;36.64;32.20;98838.34;5151331;27;8943;-81
2022/08/27 09:42:32;;;;;;;;;22.25;21.50;;;;;36.57;30.72;98838.22;5133681;27;8859;-80
2022/08/27 09:45:02;;;;;;;;;22.75;21.50;;;;;36.69;31.10;98838.63;5133904;27;8851;-79
2022/08/27 09:47:40;;;;;;;;;23.50;21.50;;;;;36.44;30.99;98833.44;5133888;27;8855;-79
2022/08/27 09:50:10;;;;;;;;;21.80;19.40;;;;;36.60;30.27;98837.00;5133098;27;8855;-83
2022/08/27 09:52:53;;;;;;;;;18.80;18.80;;;;;36.96;29.67;98833.56;5131063;27;8875;-82
2022/08/27 09:55:29;;;;;;;;;20.75;20.00;;;;;37.22;29.58;98833.97;5100311;27;8845;-81
2022/08/27 09:57:58;;;;;;;;;21.00;19.50;;;;;36.60;30.09;98835.16;5134876;27;8919;-79
2022/08/27 10:00:34;;;;;;;;;23.00;22.75;;;;;37.03;30.72;98832.66;5152290;27;8902;-79
2022/08/27 10:03:04;;;;;;;;;25.25;24.25;;;;;37.41;30.62;98842.53;5133939;27;8959;-81
2022/08/27 10:05:38;;;;;;;;;24.25;22.50;;;;;37.61;29.79;98840.06;5152407;27;8839;-82
2022/08/27 10:08:20;;;;;;;;;20.50;17.00;;;;;36.67;29.36;98837.97;5132882;27;8857;-82
2022/08/27 10:10:55;;;;;;;;;21.00;20.00;;;;;36.06;30.53;98838.84;5113715;27;8850;-80
2022/08/27 10:13:30;;;;;;;;;25.75;21.50;;;;;35.56;30.63;98840.19;5121396;27;8866;-80
2022/08/27 10:16:15;;;;;;;;;18.75;18.25;;;;;35.90;30.22;98836.28;5135776;27;8869;-83
2022/08/27 10:18:54;;;;;;;;;18.50;18.50;;;;;36.37;29.59;98840.66;5133652;27;8935;-80
2022/08/27 10:21:29;;;;;;;;;20.40;18.80;;;;;36.45;29.69;98840.56;5115570;27;8823;-81
2022/08/27 10:24:14;;;;;;;;;17.60;17.20;;;;;36.73;28.66;98839.97;5116346;27;8839;-79
2022/08/27 10:26:51;;;;;;;;;14.80;14.60;;;;;36.19;29.15;98834.69;5133515;27;8831;-80
2022/08/27 10:29:32;;;;;;;;;20.75;18.50;;;;;36.70;29.03;98831.34;5110003;27;8988;-80
2022/08/27 10:32:14;;;;;;;;;16.50;16.50;;;;;36.34;28.78;98835.56;5111952;27;8984;-78
2022/08/27 10:34:54;;;;;;;;;16.00;15.25;;;;;36.06;29.57;98824.44;5111850;27;8953;-80
2022/08/27 10:37:36;;;;;;;;;20.20;16.80;;;;;36.29;29.38;98824.41;5045366;27;9590;-81
2022/08/27 10:40:16;;;;;;;;;15.20;15.20;;;;;36.70;27.36;98826.75;5082981;27;8842;-79
2022/08/27 10:42:53;;;;;;;;;15.60;13.60;;;;;36.25;27.49;98829.38;5112285;27;8973;-80
2022/08/27 10:45:40;;;;;;;;;16.20;15.40;;;;;36.83;27.48;98821.50;5095209;27;8891;-79
2022/08/27 10:48:22;;;;;;;;;20.25;18.25;;;;;37.29;27.69;98822.31;5112244;27;8880;-78
2022/08/27 10:50:56;;;;;;;;;18.20;15.60;;;;;37.70;26.79;98822.59;5112353;27;9126;-79
2022/08/27 10:53:34;;;;;;;;;17.50;16.75;;;;;38.16;26.91;98816.75;5131231;27;9686;-80
2022/08/27 10:56:14;;;;;;;;;19.50;16.00;;;;;38.60;26.65;98810.19;5133672;27;8873;-81
2022/08/27 10:58:59;;;;;;;;;19.40;16.60;;;;;38.80;25.34;98807.56;5113210;27;8880;-80
2022/08/27 11:01:43;;;;;;;;;18.00;16.50;;;;;39.16;25.33;98813.84;5111867;27;8861;-82
2022/08/27 11:04:17;;;;;;;;;15.20;14.20;;;;;39.25;25.12;98815.34;5077113;27;8830;-79
2022/08/27 11:06:54;;;;;;;;;16.50;16.25;;;;;39.61;25.39;98819.69;5129413;27;8883;-81
2022/08/27 11:09:40;;;;;;;;;19.00;19.00;;;;;39.83;24.63;98833.97;5133290;27;8852;-82
2022/08/27 11:12:13;;;;;;;;;19.00;18.50;;;;;38.30;26.00;98834.06;5106735;27;8947;-81
2022/08/27 11:14:49;;;;;;;;;19.25;19.00;;;;;37.83;27.07;98840.94;5109967;27;8830;-80
2022/08/27 11:17:25;;;;;;;;;17.50;16.50;;;;;38.59;26.27;98838.47;5139152;27;8827;-79
2022/08/27 11:20:06;;;;;;;;;14.50;14.00;;;;;37.67;26.26;98839.28;5139265;27;8874;-80
2022/08/27 11:22:40;;;;;;;;;18.00;17.00;;;;;38.18;26.20;98828.28;5117799;27;8852;-79
2022/08/27 11:25:27;;;;;;;;;21.00;19.25;;;;;38.53;25.63;98838.41;5153508;27;8831;-82
2022/08/27 11:27:59;;;;;;;;;15.40;15.00;;;;;37.53;25.48;98837.47;5152714;27;8855;-82
2022/08/27 11:30:37;;;;;;;;;17.75;14.50;;;;;38.15;25.28;98822.38;5111948;27;8948;-81
2022/08/27 11:33:16;;;;;;;;;16.50;14.75;;;;;38.77;24.39;98818.03;5130616;27;8864;-82
2022/08/27 11:36:03;;;;;;;;;14.40;14.40;;;;;39.05;24.49;98820.72;5101809;27;8903;-81
2022/08/27 11:38:51;;;;;;;;;20.50;17.75;;;;;38.94;22.93;98810.34;5129861;27;8972;-84
2022/08/27 11:41:39;;;;;;;;;14.20;14.20;;;;;38.02;23.55;98812.22;5085426;28;8860;-81
2022/08/27 11:44:14;;;;;;;;;14.00;13.00;;;;;37.87;23.63;98806.00;5070844;28;8879;-82
2022/08/27 11:46:47;;;;;;;;;14.40;13.20;;;;;38.44;23.50;98796.84;5069392;28;8853;-81
2022/08/27 11:49:30;;;;;;;;;13.20;13.00;;;;;39.33;22.87;98795.25;5086355;28;8852;-79
2022/08/27 11:52:03;;;;;;;;;12.40;12.40;;;;;39.86;21.74;98784.44;5097547;28;8850;-82
2022/08/27 11:54:44;;;;;;;;;11.00;11.00;;;;;40.49;20.69;98794.97;5106802;28;8885;-82
2022/08/27 11:57:26;;;;;;;;;10.40;10.40;;;;;41.02;20.33;98791.22;5069154;28;8959;-80